createdAt,value
2019-03-18T00:01:48.123Z,97.55
2019-03-18T00:04:15.104Z,97.42
2019-03-18T00:06:42.061Z,97.52
2019-03-18T00:09:09.024Z,98.09
2019-03-18T00:11:35.981Z,98.38
2019-03-18T00:14:02.929Z,97.82
2019-03-18T00:16:29.900Z,98.58
2019-03-18T00:18:56.814Z,97.92
2019-03-18T00:21:23.776Z,97.78
2019-03-18T00:23:50.700Z,98.51
2019-03-18T00:26:17.645Z,98.42
2019-03-18T00:28:44.560Z,98.09
2019-03-18T00:31:11.534Z,98.09
2019-03-18T00:33:38.480Z,99.44
2019-03-18T00:36:05.455Z,99.40
2019-03-18T00:38:32.391Z,99.25
2019-03-18T00:40:59.344Z,99.00
2019-03-18T00:43:26.264Z,98.67
2019-03-18T00:45:53.213Z,98.90
2019-03-18T00:48:20.143Z,99.27
2019-03-18T00:50:47.103Z,98.86
2019-03-18T00:53:14.016Z,99.24
2019-03-18T00:55:41.043Z,99.15
2019-03-18T00:58:07.975Z,99.30
2019-03-18T01:00:34.943Z,98.76
2019-03-18T01:03:01.870Z,98.62
2019-03-18T01:05:28.913Z,98.36
2019-03-18T01:07:55.852Z,98.50
2019-03-18T01:10:22.815Z,98.31
2019-03-18T01:12:49.759Z,98.56
2019-03-18T01:15:27.405Z,98.48
2019-03-18T01:17:45.795Z,98.51
2019-03-18T01:20:12.976Z,98.23
2019-03-18T01:22:39.907Z,98.31
2019-03-18T01:25:07.073Z,98.19
2019-03-18T01:27:34.003Z,98.24
2019-03-18T01:30:01.000Z,97.81
2019-03-18T01:32:27.939Z,98.52
2019-03-18T01:34:54.903Z,99.21
2019-03-18T01:37:21.857Z,98.58
2019-03-18T01:39:48.784Z,98.37
2019-03-18T01:42:16.992Z,98.57
2019-03-18T01:44:44.095Z,98.51
2019-03-18T01:47:11.101Z,98.61
2019-03-18T01:49:38.017Z,98.61
2019-03-18T01:52:04.999Z,98.21
2019-03-18T01:54:31.930Z,97.82
2019-03-18T01:56:58.915Z,98.11
2019-03-18T01:59:25.849Z,98.48
2019-03-18T02:01:52.812Z,98.13
2019-03-18T02:04:19.763Z,97.76
2019-03-18T02:06:46.725Z,97.62
2019-03-18T02:09:13.763Z,97.89
2019-03-18T02:11:40.717Z,97.96
2019-03-18T02:14:07.641Z,98.19
2019-03-18T02:16:34.604Z,97.86
2019-03-18T02:19:01.531Z,98.32
2019-03-18T02:21:28.505Z,98.31
2019-03-18T02:23:56.342Z,98.48
2019-03-18T02:26:23.314Z,98.49
2019-03-18T02:28:50.231Z,98.40
2019-03-18T02:31:17.212Z,98.33
2019-03-18T02:33:44.144Z,98.87
2019-03-18T02:36:11.102Z,98.59
2019-03-18T02:38:38.090Z,99.07
2019-03-18T02:41:05.221Z,99.51
2019-03-18T02:43:32.217Z,100.00
2019-03-18T02:46:10.180Z,100.00
2019-03-18T02:48:28.072Z,100.00
2019-03-18T02:50:55.027Z,100.00
2019-03-18T02:53:21.951Z,100.00
2019-03-18T02:55:48.955Z,100.00
2019-03-18T02:58:15.891Z,100.00
2019-03-18T03:00:42.847Z,100.00
2019-03-18T03:03:09.776Z,100.00
2019-03-18T03:05:36.737Z,100.00
2019-03-18T03:08:03.721Z,100.00
2019-03-18T03:10:30.664Z,100.00
2019-03-18T03:12:57.664Z,100.00
2019-03-18T03:15:24.579Z,100.00
2019-03-18T03:17:51.574Z,100.00
2019-03-18T03:20:18.504Z,100.00
2019-03-18T03:22:45.458Z,100.00
2019-03-18T03:25:12.386Z,100.00
2019-03-18T03:27:39.361Z,100.00
2019-03-18T03:30:07.259Z,100.00
2019-03-18T03:32:34.318Z,100.00
2019-03-18T03:35:01.770Z,100.00
2019-03-18T03:37:28.986Z,100.00
2019-03-18T03:39:55.911Z,100.00
2019-03-18T03:42:22.867Z,100.00
2019-03-18T03:44:49.812Z,100.00
2019-03-18T03:47:16.772Z,100.00
2019-03-18T03:49:43.706Z,100.00
2019-03-18T03:52:10.666Z,100.00
2019-03-18T03:54:37.931Z,100.00
2019-03-18T03:57:05.050Z,100.00
2019-03-18T03:59:32.173Z,100.00
2019-03-18T04:01:59.212Z,100.00
2019-03-18T04:04:26.139Z,100.00
2019-03-18T04:06:53.237Z,100.00
2019-03-18T04:09:20.185Z,100.00
2019-03-18T04:11:47.164Z,100.00
2019-03-18T04:14:14.094Z,100.00
2019-03-18T04:16:43.964Z,100.00
2019-03-18T04:19:09.914Z,100.00
2019-03-18T04:21:36.886Z,100.00
2019-03-18T04:24:03.810Z,100.00
2019-03-18T04:26:30.782Z,100.00
2019-03-18T04:28:57.862Z,100.00
2019-03-18T04:31:24.804Z,100.00
2019-03-18T04:33:51.786Z,100.00
2019-03-18T04:36:18.716Z,100.00
2019-03-18T04:38:45.697Z,100.00
2019-03-18T04:41:12.620Z,100.00
2019-03-18T04:43:39.605Z,100.00
2019-03-18T04:46:06.535Z,100.00
2019-03-18T04:48:33.511Z,100.00
2019-03-18T04:51:00.462Z,100.00
2019-03-18T04:53:27.426Z,100.00
2019-03-18T04:55:54.401Z,100.00
2019-03-18T04:58:21.347Z,100.00
2019-03-18T05:00:48.279Z,100.00
2019-03-18T05:03:15.240Z,100.00
2019-03-18T05:05:42.184Z,100.00
2019-03-18T05:08:09.164Z,100.00
2019-03-18T05:10:36.109Z,100.00
2019-03-18T05:13:03.087Z,100.00
2019-03-18T05:15:30.016Z,100.00
2019-03-18T05:17:57.011Z,100.00
2019-03-18T05:20:23.936Z,100.00
2019-03-18T05:22:50.903Z,100.00
2019-03-18T05:25:17.849Z,100.00
2019-03-18T05:27:44.847Z,100.00
2019-03-18T05:30:11.826Z,100.00
2019-03-18T05:32:38.765Z,100.00
2019-03-18T05:35:06.389Z,100.00
2019-03-18T05:37:33.348Z,100.00
2019-03-18T05:40:00.482Z,100.00
2019-03-18T05:42:27.460Z,100.00
2019-03-18T05:44:54.418Z,100.00
2019-03-18T05:47:21.397Z,100.00
2019-03-18T05:49:48.372Z,100.00
2019-03-18T05:52:15.347Z,100.00
2019-03-18T05:54:42.271Z,100.00
2019-03-18T05:57:09.475Z,100.00
2019-03-18T05:59:36.512Z,100.00
2019-03-18T06:02:03.460Z,100.00
2019-03-18T06:04:30.424Z,100.00
2019-03-18T06:06:57.364Z,100.00
2019-03-18T06:09:24.332Z,100.00
2019-03-18T06:11:51.284Z,100.00
2019-03-18T06:14:18.250Z,100.00
2019-03-18T06:16:45.241Z,100.00
2019-03-18T06:19:12.197Z,100.00
2019-03-18T06:21:39.127Z,100.00
2019-03-18T06:24:06.593Z,100.00
2019-03-18T06:26:33.639Z,100.00
2019-03-18T06:29:00.613Z,100.00
2019-03-18T06:31:27.548Z,100.00
2019-03-18T06:33:54.525Z,100.00
2019-03-18T06:36:21.450Z,100.00
2019-03-18T06:38:48.439Z,100.00
2019-03-18T06:41:15.378Z,100.00
2019-03-18T06:43:42.399Z,100.00
2019-03-18T06:46:09.418Z,100.00
2019-03-18T06:48:36.425Z,100.00
2019-03-18T06:51:03.374Z,100.00
2019-03-18T06:53:30.408Z,100.00
2019-03-18T06:55:57.399Z,100.00
2019-03-18T06:58:24.386Z,100.00
2019-03-18T07:00:51.343Z,100.00
2019-03-18T07:03:18.302Z,100.00
2019-03-18T07:05:46.260Z,100.00
2019-03-18T07:08:13.898Z,100.00
2019-03-18T07:10:40.924Z,100.00
2019-03-18T07:13:07.899Z,100.00
2019-03-18T07:15:34.923Z,100.00
2019-03-18T07:18:01.912Z,100.00
2019-03-18T07:20:28.868Z,100.00
2019-03-18T07:22:55.980Z,100.00
2019-03-18T07:25:22.946Z,100.00
2019-03-18T07:27:49.883Z,100.00
2019-03-18T07:30:17.167Z,100.00
2019-03-18T07:32:44.131Z,100.00
2019-03-18T07:35:11.092Z,100.00
2019-03-18T07:37:38.119Z,100.00
2019-03-18T07:40:06.026Z,100.00
2019-03-18T07:42:32.960Z,100.00
2019-03-18T07:44:59.925Z,100.00
2019-03-18T07:47:26.873Z,100.00
2019-03-18T07:49:53.834Z,100.00
2019-03-18T07:52:21.972Z,100.00
2019-03-18T07:54:49.080Z,100.00
2019-03-18T07:57:16.056Z,100.00
2019-03-18T07:59:43.017Z,100.00
2019-03-18T08:02:09.950Z,100.00
2019-03-18T08:04:38.053Z,100.00
2019-03-18T08:07:05.286Z,100.00
2019-03-18T08:09:32.277Z,100.00
2019-03-18T08:11:59.221Z,100.00
2019-03-18T08:14:26.187Z,100.00
2019-03-18T08:16:53.117Z,100.00
2019-03-18T08:19:20.326Z,100.00
2019-03-18T08:21:47.272Z,100.00
2019-03-18T08:24:14.243Z,100.00
2019-03-18T08:26:41.196Z,100.00
2019-03-18T08:29:08.166Z,99.47
2019-03-18T08:31:35.103Z,100.00
2019-03-18T08:34:02.102Z,100.00
2019-03-18T08:36:29.043Z,99.52
2019-03-18T08:38:55.990Z,99.45
2019-03-18T08:41:22.972Z,99.54
2019-03-18T08:43:49.913Z,98.02
2019-03-18T08:46:16.899Z,99.36
2019-03-18T08:48:55.378Z,98.58
2019-03-18T08:51:12.773Z,97.82
2019-03-18T08:53:39.721Z,98.12
2019-03-18T08:56:06.726Z,98.65
2019-03-18T08:58:33.653Z,97.05
2019-03-18T09:01:00.641Z,98.00
2019-03-18T09:03:27.610Z,97.25
2019-03-18T09:05:54.588Z,97.01
2019-03-18T09:08:21.537Z,96.35
2019-03-18T09:10:48.494Z,95.66
2019-03-18T09:13:15.449Z,95.02
2019-03-18T09:15:42.583Z,94.06
2019-03-18T09:18:09.511Z,91.49
2019-03-18T09:20:36.747Z,91.55
2019-03-18T09:23:03.680Z,91.38
2019-03-18T09:25:30.659Z,90.76
2019-03-18T09:27:57.608Z,92.10
2019-03-18T09:30:24.582Z,90.80
2019-03-18T09:32:51.655Z,89.60
2019-03-18T09:35:18.723Z,89.50
2019-03-18T09:37:45.711Z,88.51
2019-03-18T09:40:12.785Z,89.31
2019-03-18T09:42:39.727Z,89.98
2019-03-18T09:45:07.081Z,87.84
2019-03-18T09:47:34.017Z,87.97
2019-03-18T09:50:01.124Z,87.20
2019-03-18T09:52:28.069Z,87.26
2019-03-18T09:54:55.030Z,84.02
2019-03-18T09:57:26.252Z,85.17
2019-03-18T09:59:50.910Z,86.58
2019-03-18T10:02:17.846Z,81.30
2019-03-18T10:04:44.822Z,82.09
2019-03-18T10:07:11.811Z,81.84
2019-03-18T10:09:38.870Z,81.06
2019-03-18T10:12:05.913Z,81.17
2019-03-18T10:14:33.080Z,80.81
2019-03-18T10:17:08.931Z,80.51
2019-03-18T10:19:33.511Z,79.89
2019-03-18T10:21:57.918Z,78.20
2019-03-18T10:24:24.830Z,78.62
2019-03-18T10:26:51.843Z,77.05
2019-03-18T10:29:18.771Z,76.58
2019-03-18T10:31:45.751Z,76.65
2019-03-18T10:34:12.723Z,76.09
2019-03-18T10:36:40.356Z,76.71
2019-03-18T10:39:07.301Z,71.36
2019-03-18T10:41:34.290Z,72.79
2019-03-18T10:44:01.229Z,73.39
2019-03-18T10:46:30.059Z,74.52
2019-03-18T10:49:18.588Z,72.44
2019-03-18T10:51:48.254Z,70.36
2019-03-18T10:54:15.339Z,69.96
2019-03-18T10:56:42.408Z,69.01
2019-03-18T10:59:09.356Z,64.56
2019-03-18T11:01:36.328Z,64.59
2019-03-18T11:04:03.371Z,67.45
2019-03-18T11:06:30.416Z,66.71
2019-03-18T11:08:57.362Z,64.35
2019-03-18T11:11:24.357Z,65.82
2019-03-18T11:13:51.317Z,63.58
2019-03-18T11:16:18.284Z,61.40
2019-03-18T11:18:45.218Z,62.22
2019-03-18T11:21:12.201Z,63.80
2019-03-18T11:23:39.148Z,63.73
2019-03-18T11:26:06.124Z,63.08
2019-03-18T11:28:33.074Z,62.41
2019-03-18T11:31:00.089Z,63.84
2019-03-18T11:33:28.517Z,62.64
2019-03-18T11:35:55.850Z,65.60
2019-03-18T11:38:22.761Z,71.96
2019-03-18T11:40:49.742Z,81.36
2019-03-18T11:43:16.708Z,89.91
2019-03-18T11:45:43.728Z,92.98
2019-03-18T21:51:16.266Z,94.70
2019-03-18T21:53:43.264Z,95.77
2019-03-18T21:56:10.265Z,96.09
2019-03-18T21:58:37.254Z,95.68
2019-03-18T22:01:04.333Z,95.03
2019-03-18T22:03:31.328Z,94.92
2019-03-18T22:06:00.946Z,94.75
2019-03-18T22:08:28.075Z,94.78
2019-03-18T22:10:55.079Z,95.39
2019-03-18T22:13:22.377Z,95.32
2019-03-18T22:15:49.372Z,95.51
2019-03-18T22:18:16.373Z,95.84
2019-03-18T22:20:43.531Z,95.93
2019-03-18T22:23:10.535Z,95.81
2019-03-18T22:25:37.471Z,96.38
2019-03-18T22:28:04.460Z,97.03
2019-03-18T22:30:31.396Z,96.70
2019-03-18T22:32:58.417Z,97.15
2019-03-18T22:35:25.398Z,97.92
2019-03-18T22:37:52.427Z,98.10
2019-03-18T22:40:19.469Z,97.96
2019-03-18T22:42:46.441Z,97.89
2019-03-18T22:45:13.611Z,97.97
2019-03-18T22:47:40.615Z,97.82
2019-03-18T22:50:07.791Z,98.60
2019-03-18T22:52:34.805Z,99.50
2019-03-18T22:55:01.877Z,98.77
2019-03-18T22:57:28.957Z,98.28
2019-03-18T22:59:55.960Z,97.98
2019-03-18T23:02:22.986Z,98.46
2019-03-18T23:04:49.945Z,99.03
2019-03-18T23:07:16.868Z,98.35
2019-03-18T23:09:43.837Z,98.10
2019-03-18T23:12:10.791Z,98.36
2019-03-18T23:14:37.808Z,97.77
2019-03-18T23:17:04.759Z,98.76
2019-03-18T23:19:31.790Z,98.77
2019-03-18T23:21:58.759Z,99.28
2019-03-18T23:24:25.730Z,98.99
2019-03-18T23:26:52.698Z,99.26
2019-03-18T23:29:19.819Z,99.23
2019-03-18T23:31:46.804Z,99.62
2019-03-18T23:34:13.810Z,100.00
2019-03-18T23:36:40.775Z,100.00
2019-03-18T23:39:07.819Z,100.00
2019-03-18T23:41:34.919Z,100.00
2019-03-18T23:44:02.022Z,100.00
2019-03-18T23:46:29.000Z,100.00
2019-03-18T23:48:55.981Z,100.00
2019-03-18T23:51:22.971Z,100.00
2019-03-18T23:53:49.949Z,100.00
2019-03-18T23:56:16.950Z,100.00
2019-03-18T23:58:43.918Z,100.00
